sensor_id;sensor_type;location;lat;lon;timestamp;pressure;altitude;pressure_sealevel;temperature;humidity
69624;BME280;56843;52.020;5.670;2023-05-12T00:00:33;101481.31;;;15.83;64.18
69624;BME280;56843;52.020;5.670;2023-05-12T00:02:03;101482.47;;;15.82;64.07
69624;BME280;56843;52.020;5.670;2023-05-12T00:03:34;101474.25;;;15.78;64.27
69624;BME280;56843;52.020;5.670;2023-05-12T00:05:05;101473.50;;;15.78;64.27
69624;BME280;56843;52.020;5.670;2023-05-12T00:06:36;101475.41;;;15.77;64.46
69624;BME280;56843;52.020;5.670;2023-05-12T00:08:07;101475.41;;;15.77;64.26
69624;BME280;56843;52.020;5.670;2023-05-12T00:09:38;101485.38;;;15.77;64.29
69624;BME280;56843;52.020;5.670;2023-05-12T00:11:10;101474.97;;;15.75;64.17
69624;BME280;56843;52.020;5.670;2023-05-12T00:12:41;101482.59;;;15.73;64.33
69624;BME280;56843;52.020;5.670;2023-05-12T00:14:11;101475.63;;;15.72;64.19
69624;BME280;56843;52.020;5.670;2023-05-12T00:15:42;101479.78;;;15.70;64.39
69624;BME280;56843;52.020;5.670;2023-05-12T00:17:12;101474.41;;;15.70;64.30
69624;BME280;56843;52.020;5.670;2023-05-12T00:18:44;101470.16;;;15.69;64.43
69624;BME280;56843;52.020;5.670;2023-05-12T00:20:14;101467.03;;;15.67;64.18
69624;BME280;56843;52.020;5.670;2023-05-12T00:21:46;101473.50;;;15.66;64.38
69624;BME280;56843;52.020;5.670;2023-05-12T00:23:16;101467.03;;;15.67;64.35
69624;BME280;56843;52.020;5.670;2023-05-12T00:24:47;101471.16;;;15.64;64.42
69624;BME280;56843;52.020;5.670;2023-05-12T00:26:17;101463.09;;;15.64;64.36
69624;BME280;56843;52.020;5.670;2023-05-12T00:27:50;101469.16;;;15.61;64.40
69624;BME280;56843;52.020;5.670;2023-05-12T00:29:20;101461.84;;;15.62;64.43
69624;BME280;56843;52.020;5.670;2023-05-12T00:30:51;101460.28;;;15.61;64.69
69624;BME280;56843;52.020;5.670;2023-05-12T00:32:21;101462.22;;;15.60;64.54
69624;BME280;56843;52.020;5.670;2023-05-12T00:33:52;101461.75;;;15.58;64.57
69624;BME280;56843;52.020;5.670;2023-05-12T00:35:22;101459.84;;;15.59;64.56
69624;BME280;56843;52.020;5.670;2023-05-12T00:36:53;101459.03;;;15.58;64.66
69624;BME280;56843;52.020;5.670;2023-05-12T00:38:23;101460.19;;;15.57;64.66
69624;BME280;56843;52.020;5.670;2023-05-12T00:39:54;101469.38;;;15.56;64.95
69624;BME280;56843;52.020;5.670;2023-05-12T00:41:24;101460.84;;;15.54;64.59
69624;BME280;56843;52.020;5.670;2023-05-12T00:42:55;101460.09;;;15.54;64.79
69624;BME280;56843;52.020;5.670;2023-05-12T00:44:25;101453.91;;;15.53;64.83
69624;BME280;56843;52.020;5.670;2023-05-12T00:45:56;101453.13;;;15.53;64.75
69624;BME280;56843;52.020;5.670;2023-05-12T00:47:27;101454.25;;;15.52;64.76
69624;BME280;56843;52.020;5.670;2023-05-12T00:48:58;101447.31;;;15.51;64.62
69624;BME280;56843;52.020;5.670;2023-05-12T00:50:28;101453.78;;;15.50;65.03
69624;BME280;56843;52.020;5.670;2023-05-12T00:52:01;101447.66;;;15.49;64.87
69624;BME280;56843;52.020;5.670;2023-05-12T00:53:32;101449.56;;;15.49;64.80
69624;BME280;56843;52.020;5.670;2023-05-12T00:55:03;101448.75;;;15.48;65.00
69624;BME280;56843;52.020;5.670;2023-05-12T00:56:35;101442.13;;;15.45;65.17
69624;BME280;56843;52.020;5.670;2023-05-12T00:58:11;101450.22;;;15.45;64.98
69624;BME280;56843;52.020;5.670;2023-05-12T00:59:42;101447.53;;;15.45;64.95
69624;BME280;56843;52.020;5.670;2023-05-12T01:03:42;101443.84;;;15.38;65.21
69624;BME280;56843;52.020;5.670;2023-05-12T01:05:13;101436.53;;;15.38;65.24
69624;BME280;56843;52.020;5.670;2023-05-12T01:06:48;101438.91;;;15.40;65.26
69624;BME280;56843;52.020;5.670;2023-05-12T01:08:21;101438.13;;;15.39;65.20
69624;BME280;56843;52.020;5.670;2023-05-12T01:09:53;101431.94;;;15.39;65.33
69624;BME280;56843;52.020;5.670;2023-05-12T01:11:25;101429.59;;;15.37;65.09
69624;BME280;56843;52.020;5.670;2023-05-12T01:12:56;101439.59;;;15.37;65.33
69624;BME280;56843;52.020;5.670;2023-05-12T01:14:26;101428.03;;;15.36;65.35
69624;BME280;56843;52.020;5.670;2023-05-12T01:15:58;101433.09;;;15.38;65.40
69624;BME280;56843;52.020;5.670;2023-05-12T01:17:34;101428.03;;;15.36;65.26
69624;BME280;56843;52.020;5.670;2023-05-12T01:19:08;101433.41;;;15.36;65.28
69624;BME280;56843;52.020;5.670;2023-05-12T01:20:45;101425.59;;;15.31;65.31
69624;BME280;56843;52.020;5.670;2023-05-12T01:22:17;101429.81;;;15.32;65.44
69624;BME280;56843;52.020;5.670;2023-05-12T01:24:05;101427.13;;;15.32;65.51
69624;BME280;56843;52.020;5.670;2023-05-12T01:25:37;101430.19;;;15.31;65.25
69624;BME280;56843;52.020;5.670;2023-05-12T01:27:09;101430.97;;;15.31;65.29
69624;BME280;56843;52.020;5.670;2023-05-12T01:28:40;101421.66;;;15.29;65.32
69624;BME280;56843;52.020;5.670;2023-05-12T01:30:15;101416.16;;;15.25;65.64
69624;BME280;56843;52.020;5.670;2023-05-12T01:31:46;101422.44;;;15.29;65.38
69624;BME280;56843;52.020;5.670;2023-05-12T01:33:18;101430.50;;;15.29;65.51
69624;BME280;56843;52.020;5.670;2023-05-12T01:34:48;101422.78;;;15.28;65.50
69624;BME280;56843;52.020;5.670;2023-05-12T01:36:20;101425.81;;;15.26;65.62
69624;BME280;56843;52.020;5.670;2023-05-12T01:37:50;101421.97;;;15.27;65.70
69624;BME280;56843;52.020;5.670;2023-05-12T01:39:21;101418.06;;;15.25;65.81
69624;BME280;56843;52.020;5.670;2023-05-12T01:40:51;101425.81;;;15.26;65.63
69624;BME280;56843;52.020;5.670;2023-05-12T01:42:22;101423.91;;;15.27;65.80
69624;BME280;56843;52.020;5.670;2023-05-12T01:43:53;101424.22;;;15.25;65.62
69624;BME280;56843;52.020;5.670;2023-05-12T01:45:24;101415.38;;;15.25;65.73
69624;BME280;56843;52.020;5.670;2023-05-12T01:46:56;101420.75;;;15.25;65.74
69624;BME280;56843;52.020;5.670;2023-05-12T01:48:27;101425.38;;;15.24;65.74
69624;BME280;56843;52.020;5.670;2023-05-12T01:49:58;101420.75;;;15.25;65.95
69624;BME280;56843;52.020;5.670;2023-05-12T01:51:29;101419.97;;;15.24;65.97
69624;BME280;56843;52.020;5.670;2023-05-12T01:53:01;101427.25;;;15.24;65.94
69624;BME280;56843;52.020;5.670;2023-05-12T01:54:32;101423.78;;;15.23;65.93
69624;BME280;56843;52.020;5.670;2023-05-12T01:56:02;101424.91;;;15.22;66.07
69624;BME280;56843;52.020;5.670;2023-05-12T01:57:35;101418.31;;;15.20;66.01
69624;BME280;56843;52.020;5.670;2023-05-12T01:59:06;101425.25;;;15.21;66.03
69624;BME280;56843;52.020;5.670;2023-05-12T02:00:36;101425.25;;;15.21;65.80
69624;BME280;56843;52.020;5.670;2023-05-12T02:02:09;101425.25;;;15.21;66.21
69624;BME280;56843;52.020;5.670;2023-05-12T02:03:41;101419.84;;;15.21;65.95
69624;BME280;56843;52.020;5.670;2023-05-12T02:05:15;101424.47;;;15.20;65.86
69624;BME280;56843;52.020;5.670;2023-05-12T02:06:49;101422.09;;;15.19;66.23
69624;BME280;56843;52.020;5.670;2023-05-12T02:08:19;101422.91;;;15.19;65.98
69624;BME280;56843;52.020;5.670;2023-05-12T02:09:50;101417.53;;;15.19;66.22
69624;BME280;56843;52.020;5.670;2023-05-12T02:11:22;101411.34;;;15.19;66.23
69624;BME280;56843;52.020;5.670;2023-05-12T02:12:52;101420.22;;;15.19;66.20
69624;BME280;56843;52.020;5.670;2023-05-12T02:14:23;101416.28;;;15.17;66.29
69624;BME280;56843;52.020;5.670;2023-05-12T02:15:54;101414.72;;;15.16;66.09
69624;BME280;56843;52.020;5.670;2023-05-12T02:17:25;101422.44;;;15.17;66.09
69624;BME280;56843;52.020;5.670;2023-05-12T02:19:00;101418.19;;;15.16;66.28
69624;BME280;56843;52.020;5.670;2023-05-12T02:20:30;101413.16;;;15.15;66.34
69624;BME280;56843;52.020;5.670;2023-05-12T02:22:01;101412.03;;;15.16;66.16
69624;BME280;56843;52.020;5.670;2023-05-12T02:23:31;101411.56;;;15.14;66.44
69624;BME280;56843;52.020;5.670;2023-05-12T02:25:02;101408.22;;;15.17;66.23
69624;BME280;56843;52.020;5.670;2023-05-12T02:26:33;101413.16;;;15.15;66.29
69624;BME280;56843;52.020;5.670;2023-05-12T02:28:04;101408.22;;;15.17;66.73
69624;BME280;56843;52.020;5.670;2023-05-12T02:29:37;101414.38;;;15.17;66.58
69624;BME280;56843;52.020;5.670;2023-05-12T02:31:08;101415.16;;;15.18;66.52
69624;BME280;56843;52.020;5.670;2023-05-12T02:32:39;101409.34;;;15.16;66.56
69624;BME280;56843;52.020;5.670;2023-05-12T02:34:11;101408.56;;;15.15;66.45
69624;BME280;56843;52.020;5.670;2023-05-12T02:35:42;101397.78;;;15.15;66.58
69624;BME280;56843;52.020;5.670;2023-05-12T02:37:13;101403.97;;;15.16;66.39
69624;BME280;56843;52.020;5.670;2023-05-12T02:38:44;101403.50;;;15.14;66.70
69624;BME280;56843;52.020;5.670;2023-05-12T02:40:14;101399.69;;;15.15;66.54
69624;BME280;56843;52.020;5.670;2023-05-12T02:41:45;101403.50;;;15.14;66.61
69624;BME280;56843;52.020;5.670;2023-05-12T02:43:15;101397.66;;;15.12;66.36
69624;BME280;56843;52.020;5.670;2023-05-12T02:44:46;101410.81;;;15.13;66.53
69624;BME280;56843;52.020;5.670;2023-05-12T02:46:17;101400.34;;;15.12;66.61
69624;BME280;56843;52.020;5.670;2023-05-12T02:47:47;101407.66;;;15.11;66.54
69624;BME280;56843;52.020;5.670;2023-05-12T02:49:18;101400.72;;;15.10;66.63
69624;BME280;56843;52.020;5.670;2023-05-12T02:50:49;101398.81;;;15.11;66.66
69624;BME280;56843;52.020;5.670;2023-05-12T02:52:20;101401.84;;;15.09;66.77
69624;BME280;56843;52.020;5.670;2023-05-12T02:53:51;101399.59;;;15.11;66.79
69624;BME280;56843;52.020;5.670;2023-05-12T02:55:22;101398.38;;;15.09;66.71
69624;BME280;56843;52.020;5.670;2023-05-12T02:56:53;101396.13;;;15.11;66.73
69624;BME280;56843;52.020;5.670;2023-05-12T02:58:26;101396.13;;;15.11;66.84
69624;BME280;56843;52.020;5.670;2023-05-12T02:59:56;101395.69;;;15.09;66.69
69624;BME280;56843;52.020;5.670;2023-05-12T03:01:27;101408.00;;;15.10;66.76
69624;BME280;56843;52.020;5.670;2023-05-12T03:02:57;101392.19;;;15.08;66.92
69624;BME280;56843;52.020;5.670;2023-05-12T03:04:28;101390.63;;;15.07;66.55
69624;BME280;56843;52.020;5.670;2023-05-12T03:05:58;101387.91;;;15.07;66.81
69624;BME280;56843;52.020;5.670;2023-05-12T03:07:29;101393.31;;;15.07;66.84
69624;BME280;56843;52.020;5.670;2023-05-12T03:09:00;101396.34;;;15.06;66.88
69624;BME280;56843;52.020;5.670;2023-05-12T03:10:30;101391.75;;;15.06;66.83
69624;BME280;56843;52.020;5.670;2023-05-12T03:12:01;101389.84;;;15.07;67.04
69624;BME280;56843;52.020;5.670;2023-05-12T03:13:32;101387.91;;;15.07;67.06
69624;BME280;56843;52.020;5.670;2023-05-12T03:15:03;101396.78;;;15.08;67.13
69624;BME280;56843;52.020;5.670;2023-05-12T03:16:37;101389.84;;;15.07;67.15
69624;BME280;56843;52.020;5.670;2023-05-12T03:18:07;101387.91;;;15.07;67.02
69624;BME280;56843;52.020;5.670;2023-05-12T03:19:38;101389.84;;;15.07;67.15
69624;BME280;56843;52.020;5.670;2023-05-12T03:21:08;101388.72;;;15.08;67.18
69624;BME280;56843;52.020;5.670;2023-05-12T03:22:40;101394.88;;;15.08;67.13
69624;BME280;56843;52.020;5.670;2023-05-12T03:24:10;101392.19;;;15.08;67.11
69624;BME280;56843;52.020;5.670;2023-05-12T03:25:41;101378.75;;;15.08;67.01
69624;BME280;56843;52.020;5.670;2023-05-12T03:27:11;101388.72;;;15.08;67.16
69624;BME280;56843;52.020;5.670;2023-05-12T03:28:42;101387.91;;;15.07;67.13
69624;BME280;56843;52.020;5.670;2023-05-12T03:30:12;101376.72;;;15.05;67.13
69624;BME280;56843;52.020;5.670;2023-05-12T03:31:43;101389.84;;;15.07;67.15
69624;BME280;56843;52.020;5.670;2023-05-12T03:33:14;101379.41;;;15.05;67.33
69624;BME280;56843;52.020;5.670;2023-05-12T03:34:44;101384.47;;;15.07;67.33
69624;BME280;56843;52.020;5.670;2023-05-12T03:36:15;101374.81;;;15.06;67.47
69624;BME280;56843;52.020;5.670;2023-05-12T03:37:46;101380.19;;;15.06;67.36
69624;BME280;56843;52.020;5.670;2023-05-12T03:39:16;101379.41;;;15.05;67.50
69624;BME280;56843;52.020;5.670;2023-05-12T03:40:48;101374.38;;;15.04;67.43
69624;BME280;56843;52.020;5.670;2023-05-12T03:42:22;101380.53;;;15.04;68.18
69624;BME280;56843;52.020;5.670;2023-05-12T03:43:53;101383.25;;;15.04;67.60
69624;BME280;56843;52.020;5.670;2023-05-12T03:45:24;101378.97;;;15.03;67.57
69624;BME280;56843;52.020;5.670;2023-05-12T03:46:54;101379.41;;;15.05;67.67
69624;BME280;56843;52.020;5.670;2023-05-12T03:48:25;101377.41;;;15.02;67.70
69624;BME280;56843;52.020;5.670;2023-05-12T03:49:56;101384.78;;;15.05;67.74
69624;BME280;56843;52.020;5.670;2023-05-12T03:51:27;101382.44;;;15.04;67.73
69624;BME280;56843;52.020;5.670;2023-05-12T03:52:58;101380.53;;;15.04;67.75
69624;BME280;56843;52.020;5.670;2023-05-12T03:54:28;101384.03;;;15.05;67.48
69624;BME280;56843;52.020;5.670;2023-05-12T03:56:04;101380.19;;;15.06;67.63
69624;BME280;56843;52.020;5.670;2023-05-12T03:57:36;101381.22;;;15.01;67.78
69624;BME280;56843;52.020;5.670;2023-05-12T03:59:07;101373.16;;;15.01;67.87
69624;BME280;56843;52.020;5.670;2023-05-12T04:00:38;101369.00;;;15.04;67.83
69624;BME280;56843;52.020;5.670;2023-05-12T04:02:08;101372.47;;;15.04;67.89
69624;BME280;56843;52.020;5.670;2023-05-12T04:03:41;101375.16;;;15.04;67.86
69624;BME280;56843;52.020;5.670;2023-05-12T04:05:12;101383.25;;;15.04;67.98
69624;BME280;56843;52.020;5.670;2023-05-12T04:06:43;101370.44;;;15.01;67.97
69624;BME280;56843;52.020;5.670;2023-05-12T04:08:13;101377.06;;;15.04;68.22
69624;BME280;56843;52.020;5.670;2023-05-12T04:09:44;101376.63;;;15.02;68.18
69624;BME280;56843;52.020;5.670;2023-05-12T04:11:14;101384.34;;;15.03;67.90
69624;BME280;56843;52.020;5.670;2023-05-12T04:12:45;101395.53;;;15.05;68.09
69624;BME280;56843;52.020;5.670;2023-05-12T04:14:16;101390.16;;;15.05;68.23
69624;BME280;56843;52.020;5.670;2023-05-12T04:15:47;101385.94;;;15.04;68.10
69624;BME280;56843;52.020;5.670;2023-05-12T04:17:18;101390.28;;;15.09;68.22
69624;BME280;56843;52.020;5.670;2023-05-12T04:18:49;101389.50;;;15.08;68.29
69624;BME280;56843;52.020;5.670;2023-05-12T04:20:20;101385.72;;;15.09;68.22
69624;BME280;56843;52.020;5.670;2023-05-12T04:21:51;101391.84;;;15.10;68.30
69624;BME280;56843;52.020;5.670;2023-05-12T04:23:22;101379.19;;;15.10;68.10
69624;BME280;56843;52.020;5.670;2023-05-12T04:24:53;101390.75;;;15.11;68.47
69624;BME280;56843;52.020;5.670;2023-05-12T04:26:23;101388.03;;;15.11;68.26
69624;BME280;56843;52.020;5.670;2023-05-12T04:27:56;101388.84;;;15.11;68.57
69624;BME280;56843;52.020;5.670;2023-05-12T04:29:26;101393.44;;;15.11;68.59
69624;BME280;56843;52.020;5.670;2023-05-12T04:31:03;101392.72;;;15.14;68.14
69624;BME280;56843;52.020;5.670;2023-05-12T04:32:34;101390.38;;;15.12;68.42
69624;BME280;56843;52.020;5.670;2023-05-12T04:34:05;101398.13;;;15.14;68.49
69624;BME280;56843;52.020;5.670;2023-05-12T04:35:37;101394.31;;;15.15;68.52
69624;BME280;56843;52.020;5.670;2023-05-12T04:37:08;101393.22;;;15.16;68.49
69624;BME280;56843;52.020;5.670;2023-05-12T04:38:39;101396.22;;;15.14;68.31
69624;BME280;56843;52.020;5.670;2023-05-12T04:40:10;101391.84;;;15.10;68.57
69624;BME280;56843;52.020;5.670;2023-05-12T04:41:40;101398.25;;;15.17;68.58
69624;BME280;56843;52.020;5.670;2023-05-12T04:43:11;101392.50;;;15.19;68.59
69624;BME280;56843;52.020;5.670;2023-05-12T04:44:42;101397.88;;;15.19;68.78
69624;BME280;56843;52.020;5.670;2023-05-12T04:46:15;101399.47;;;15.20;68.60
69624;BME280;56843;52.020;5.670;2023-05-12T04:47:46;101402.47;;;15.18;68.69
69624;BME280;56843;52.020;5.670;2023-05-12T04:49:16;101407.88;;;15.18;68.79
69624;BME280;56843;52.020;5.670;2023-05-12T04:50:47;101403.41;;;15.22;68.71
69624;BME280;56843;52.020;5.670;2023-05-12T04:52:18;101406.75;;;15.19;68.72
69624;BME280;56843;52.020;5.670;2023-05-12T04:53:50;101406.41;;;15.21;68.53
69624;BME280;56843;52.020;5.670;2023-05-12T04:55:21;101419.19;;;15.24;68.58
69624;BME280;56843;52.020;5.670;2023-05-12T04:56:52;101415.38;;;15.25;68.87
69624;BME280;56843;52.020;5.670;2023-05-12T04:58:23;101416.50;;;15.24;68.76
69624;BME280;56843;52.020;5.670;2023-05-12T04:59:54;101423.44;;;15.25;68.85
69624;BME280;56843;52.020;5.670;2023-05-12T05:01:25;101429.28;;;15.27;69.02
69624;BME280;56843;52.020;5.670;2023-05-12T05:02:56;101409.88;;;15.21;68.93
69624;BME280;56843;52.020;5.670;2023-05-12T05:04:27;101428.16;;;15.28;68.84
69624;BME280;56843;52.020;5.670;2023-05-12T05:05:58;101426.25;;;15.28;68.85
69624;BME280;56843;52.020;5.670;2023-05-12T05:07:28;101427.81;;;15.29;68.92
69624;BME280;56843;52.020;5.670;2023-05-12T05:08:59;101424.00;;;15.30;68.90
69624;BME280;56843;52.020;5.670;2023-05-12T05:10:29;101425.91;;;15.30;69.04
69624;BME280;56843;52.020;5.670;2023-05-12T05:12:00;101426.69;;;15.30;68.96
69624;BME280;56843;52.020;5.670;2023-05-12T05:13:31;101427.94;;;15.33;69.08
69624;BME280;56843;52.020;5.670;2023-05-12T05:15:01;101434.88;;;15.34;68.95
69624;BME280;56843;52.020;5.670;2023-05-12T05:16:32;101424.88;;;15.34;69.15
69624;BME280;56843;52.020;5.670;2023-05-12T05:18:03;101429.94;;;15.36;69.09
69624;BME280;56843;52.020;5.670;2023-05-12T05:19:35;101433.41;;;15.36;69.18
69624;BME280;56843;52.020;5.670;2023-05-12T05:21:06;101440.38;;;15.37;69.17
69624;BME280;56843;52.020;5.670;2023-05-12T05:22:36;101431.94;;;15.39;69.24
69624;BME280;56843;52.020;5.670;2023-05-12T05:24:09;101431.16;;;15.38;69.22
69624;BME280;56843;52.020;5.670;2023-05-12T05:25:39;101432.38;;;15.41;69.17
69624;BME280;56843;52.020;5.670;2023-05-12T05:27:10;101434.75;;;15.42;69.25
69624;BME280;56843;52.020;5.670;2023-05-12T05:28:41;101435.88;;;15.41;69.15
69624;BME280;56843;52.020;5.670;2023-05-12T05:30:12;101447.09;;;15.43;69.20
69624;BME280;56843;52.020;5.670;2023-05-12T05:31:44;101445.97;;;15.44;69.36
69624;BME280;56843;52.020;5.670;2023-05-12T05:33:14;101444.84;;;15.45;69.39
69624;BME280;56843;52.020;5.670;2023-05-12T05:34:45;101449.88;;;15.47;69.42
69624;BME280;56843;52.020;5.670;2023-05-12T05:36:16;101442.59;;;15.48;69.62
69624;BME280;56843;52.020;5.670;2023-05-12T05:37:46;101440.16;;;15.42;69.37
69624;BME280;56843;52.020;5.670;2023-05-12T05:39:17;101447.66;;;15.49;69.18
69624;BME280;56843;52.020;5.670;2023-05-12T05:40:48;101452.00;;;15.54;69.28
69624;BME280;56843;52.020;5.670;2023-05-12T05:42:18;101454.72;;;15.54;69.55
69624;BME280;56843;52.020;5.670;2023-05-12T05:43:49;101460.53;;;15.56;69.30
69624;BME280;56843;52.020;5.670;2023-05-12T05:45:19;101467.13;;;15.58;69.40
69624;BME280;56843;52.020;5.670;2023-05-12T05:46:51;101469.06;;;15.58;69.44
69624;BME280;56843;52.020;5.670;2023-05-12T05:48:23;101464.09;;;15.60;69.33
69624;BME280;56843;52.020;5.670;2023-05-12T05:49:54;101464.91;;;15.60;69.21
69624;BME280;56843;52.020;5.670;2023-05-12T05:51:25;101456.47;;;15.62;69.30
69624;BME280;56843;52.020;5.670;2023-05-12T05:52:56;101466.91;;;15.63;69.22
69624;BME280;56843;52.020;5.670;2023-05-12T05:54:27;101468.13;;;15.66;69.60
69624;BME280;56843;52.020;5.670;2023-05-12T05:55:57;101459.16;;;15.62;69.32
69624;BME280;56843;52.020;5.670;2023-05-12T05:57:29;101466.66;;;15.68;69.33
69624;BME280;56843;52.020;5.670;2023-05-12T05:59:01;101463.63;;;15.70;69.49
69624;BME280;56843;52.020;5.670;2023-05-12T06:00:33;101467.19;;;15.74;69.53
69624;BME280;56843;52.020;5.670;2023-05-12T06:02:04;101462.25;;;15.76;69.63
69624;BME280;56843;52.020;5.670;2023-05-12T06:03:36;101460.91;;;15.82;69.49
69624;BME280;56843;52.020;5.670;2023-05-12T06:05:07;101466.38;;;15.85;69.48
69624;BME280;56843;52.020;5.670;2023-05-12T06:06:38;101472.66;;;15.89;69.55
69624;BME280;56843;52.020;5.670;2023-05-12T06:08:09;101471.91;;;15.89;69.48
69624;BME280;56843;52.020;5.670;2023-05-12T06:09:42;101471.19;;;15.92;69.49
69624;BME280;56843;52.020;5.670;2023-05-12T06:11:12;101472.44;;;15.94;69.27
69624;BME280;56843;52.020;5.670;2023-05-12T06:12:43;101469.38;;;15.96;69.48
69624;BME280;56843;52.020;5.670;2023-05-12T06:14:14;101476.34;;;15.97;69.31
69624;BME280;56843;52.020;5.670;2023-05-12T06:15:44;101482.97;;;15.99;69.39
69624;BME280;56843;52.020;5.670;2023-05-12T06:17:16;101483.44;;;16.01;69.35
69624;BME280;56843;52.020;5.670;2023-05-12T06:18:46;101492.75;;;16.04;69.52
69624;BME280;56843;52.020;5.670;2023-05-12T06:20:17;101485.47;;;16.04;69.33
69624;BME280;56843;52.020;5.670;2023-05-12T06:21:48;101482.28;;;16.02;69.27
69624;BME280;56843;52.020;5.670;2023-05-12T06:23:21;101495.19;;;16.09;69.26
69624;BME280;56843;52.020;5.670;2023-05-12T06:24:52;101494.06;;;16.10;69.40
69624;BME280;56843;52.020;5.670;2023-05-12T06:26:24;101499.53;;;16.13;68.92
69624;BME280;56843;52.020;5.670;2023-05-12T06:27:54;101511.91;;;16.14;69.12
69624;BME280;56843;52.020;5.670;2023-05-12T06:29:25;101504.19;;;16.13;69.12
69624;BME280;56843;52.020;5.670;2023-05-12T06:30:56;101509.22;;;16.14;69.19
69624;BME280;56843;52.020;5.670;2023-05-12T06:32:28;101511.22;;;16.17;69.26
69624;BME280;56843;52.020;5.670;2023-05-12T06:33:59;101510.09;;;16.18;69.14
69624;BME280;56843;52.020;5.670;2023-05-12T06:35:30;101515.47;;;16.18;69.08
69624;BME280;56843;52.020;5.670;2023-05-12T06:37:01;101516.72;;;16.21;69.28
69624;BME280;56843;52.020;5.670;2023-05-12T06:38:32;101512.09;;;16.22;69.01
69624;BME280;56843;52.020;5.670;2023-05-12T06:40:02;101516.03;;;16.24;68.97
69624;BME280;56843;52.020;5.670;2023-05-12T06:41:34;101514.88;;;16.25;69.01
69624;BME280;56843;52.020;5.670;2023-05-12T06:43:04;101509.94;;;16.27;68.90
69624;BME280;56843;52.020;5.670;2023-05-12T06:44:38;101516.47;;;16.26;68.86
69624;BME280;56843;52.020;5.670;2023-05-12T06:46:09;101527.69;;;16.28;68.84
69624;BME280;56843;52.020;5.670;2023-05-12T06:47:40;101519.25;;;16.30;68.92
69624;BME280;56843;52.020;5.670;2023-05-12T06:49:10;101525.78;;;16.29;68.93
69624;BME280;56843;52.020;5.670;2023-05-12T06:50:40;101517.00;;;16.32;68.83
69624;BME280;56843;52.020;5.670;2023-05-12T06:52:11;101527.78;;;16.32;68.81
69624;BME280;56843;52.020;5.670;2023-05-12T06:53:44;101525.88;;;16.32;68.81
69624;BME280;56843;52.020;5.670;2023-05-12T06:55:15;101532.50;;;16.35;68.92
69624;BME280;56843;52.020;5.670;2023-05-12T06:56:48;101523.72;;;16.38;68.86
69624;BME280;56843;52.020;5.670;2023-05-12T06:58:19;101526.06;;;16.39;68.74
69624;BME280;56843;52.020;5.670;2023-05-12T06:59:51;101533.03;;;16.40;68.88
69624;BME280;56843;52.020;5.670;2023-05-12T07:01:24;101534.38;;;16.46;68.71
69624;BME280;56843;52.020;5.670;2023-05-12T07:02:54;101538.59;;;16.47;68.63
69624;BME280;56843;52.020;5.670;2023-05-12T07:04:25;101549.94;;;16.53;68.79
69624;BME280;56843;52.020;5.670;2023-05-12T07:05:56;101536.97;;;16.58;68.53
69624;BME280;56843;52.020;5.670;2023-05-12T07:07:26;101532.03;;;16.60;68.68
69624;BME280;56843;52.020;5.670;2023-05-12T07:08:57;101536.38;;;16.65;68.62
69624;BME280;56843;52.020;5.670;2023-05-12T07:10:27;101537.25;;;16.69;68.30
69624;BME280;56843;52.020;5.670;2023-05-12T07:11:58;101540.84;;;16.73;68.11
69624;BME280;56843;52.020;5.670;2023-05-12T07:13:30;101547.13;;;16.77;68.12
69624;BME280;56843;52.020;5.670;2023-05-12T07:15:00;101542.53;;;16.77;68.16
69624;BME280;56843;52.020;5.670;2023-05-12T07:16:30;101530.34;;;16.83;68.01
69624;BME280;56843;52.020;5.670;2023-05-12T07:18:01;101540.88;;;16.88;68.19
69624;BME280;56843;52.020;5.670;2023-05-12T07:19:32;101537.03;;;16.89;67.74
69624;BME280;56843;52.020;5.670;2023-05-12T07:21:02;101549.06;;;16.92;67.90
69624;BME280;56843;52.020;5.670;2023-05-12T07:22:33;101542.50;;;16.93;67.87
69624;BME280;56843;52.020;5.670;2023-05-12T07:24:04;101548.13;;;17.00;67.81
69624;BME280;56843;52.020;5.670;2023-05-12T07:25:35;101540.47;;;17.02;67.66
69624;BME280;56843;52.020;5.670;2023-05-12T07:27:06;101543.44;;;17.13;67.85
69624;BME280;56843;52.020;5.670;2023-05-12T07:28:37;101541.00;;;17.23;67.42
69624;BME280;56843;52.020;5.670;2023-05-12T07:30:08;101535.84;;;17.34;67.17
69624;BME280;56843;52.020;5.670;2023-05-12T07:31:38;101540.00;;;17.47;67.20
69624;BME280;56843;52.020;5.670;2023-05-12T07:33:09;101554.53;;;17.58;67.04
69624;BME280;56843;52.020;5.670;2023-05-12T07:34:40;101545.97;;;17.72;66.76
69624;BME280;56843;52.020;5.670;2023-05-12T07:36:11;101551.28;;;17.84;66.25
69624;BME280;56843;52.020;5.670;2023-05-12T07:37:41;101557.78;;;17.98;65.79
69624;BME280;56843;52.020;5.670;2023-05-12T07:39:12;101555.81;;;18.14;65.49
69624;BME280;56843;52.020;5.670;2023-05-12T07:40:44;101552.59;;;18.28;65.46
69624;BME280;56843;52.020;5.670;2023-05-12T07:42:14;101548.63;;;18.41;64.98
69624;BME280;56843;52.020;5.670;2023-05-12T07:43:45;101550.03;;;18.54;64.85
69624;BME280;56843;52.020;5.670;2023-05-12T07:45:15;101540.63;;;18.67;64.55
69624;BME280;56843;52.020;5.670;2023-05-12T07:46:52;101550.53;;;18.79;64.35
69624;BME280;56843;52.020;5.670;2023-05-12T07:48:22;101550.31;;;18.87;64.22
69624;BME280;56843;52.020;5.670;2023-05-12T07:49:53;101557.88;;;19.01;63.36
69624;BME280;56843;52.020;5.670;2023-05-12T07:51:23;101553.34;;;19.08;63.24
69624;BME280;56843;52.020;5.670;2023-05-12T07:52:54;101560.81;;;19.15;63.18
69624;BME280;56843;52.020;5.670;2023-05-12T07:54:24;101555.53;;;19.22;62.65
69624;BME280;56843;52.020;5.670;2023-05-12T07:55:55;101559.91;;;19.30;62.43
69624;BME280;56843;52.020;5.670;2023-05-12T07:57:25;101567.00;;;19.38;62.51
69624;BME280;56843;52.020;5.670;2023-05-12T07:58:56;101560.53;;;19.46;62.41